createdAt,value
2019-04-05T00:00:54.376Z,1.50
2019-04-05T00:03:22.834Z,3.07
2019-04-05T00:05:51.378Z,3.07
2019-04-05T00:08:19.834Z,3.70
2019-04-05T00:10:48.265Z,4.23
2019-04-05T00:13:16.808Z,3.63
2019-04-05T00:15:46.014Z,2.10
2019-04-05T00:18:14.460Z,1.37
2019-04-05T00:20:42.919Z,1.27
2019-04-05T00:23:11.449Z,2.00
2019-04-05T00:25:39.875Z,2.37
2019-04-05T00:28:08.337Z,2.73
2019-04-05T00:30:36.799Z,2.80
2019-04-05T00:33:05.319Z,2.27
2019-04-05T00:35:33.756Z,2.37
2019-04-05T00:38:02.230Z,2.63
2019-04-05T00:40:30.691Z,2.17
2019-04-05T00:42:59.217Z,2.23
2019-04-05T00:45:28.761Z,3.23
2019-04-05T00:47:58.534Z,4.13
2019-04-05T00:50:27.167Z,3.37
2019-04-05T00:52:55.587Z,3.47
2019-04-05T00:55:24.034Z,2.03
2019-04-05T00:57:52.773Z,2.20
2019-04-05T01:00:21.371Z,3.43
2019-04-05T01:02:49.823Z,2.83
2019-04-05T01:05:18.356Z,2.43
2019-04-05T01:07:46.862Z,2.80
2019-04-05T01:10:16.452Z,2.57
2019-04-05T01:12:46.389Z,1.90
2019-04-05T01:15:15.779Z,2.23
2019-04-05T01:17:44.298Z,3.33
2019-04-05T01:20:14.195Z,4.60
2019-04-05T01:22:44.477Z,3.17
2019-04-05T01:25:13.016Z,2.40
2019-04-05T01:27:41.899Z,1.70
2019-04-05T01:30:12.938Z,1.20
2019-04-05T01:32:41.469Z,1.20
2019-04-05T01:35:09.974Z,1.23
2019-04-05T01:37:38.646Z,3.17
2019-04-05T01:40:08.661Z,3.20
2019-04-05T01:42:38.271Z,3.73
2019-04-05T01:45:10.257Z,2.73
2019-04-05T01:47:38.955Z,2.77
2019-04-05T01:50:10.440Z,2.80
2019-04-05T01:52:40.031Z,2.90
2019-04-05T01:55:09.738Z,4.77
2019-04-05T01:57:38.204Z,6.30
2019-04-05T02:00:10.050Z,6.17
2019-04-05T02:02:38.664Z,7.57
2019-04-05T02:05:08.958Z,7.00
2019-04-05T02:07:38.241Z,7.63
2019-04-05T02:10:11.940Z,7.00
2019-04-05T02:12:40.832Z,5.63
2019-04-05T02:15:12.321Z,6.30
2019-04-05T02:17:40.912Z,6.77
2019-04-05T02:20:09.700Z,6.03
2019-04-05T02:22:38.303Z,5.70
2019-04-05T02:25:07.265Z,6.67
2019-04-05T02:27:35.860Z,5.13
2019-04-05T02:30:06.457Z,4.50
2019-04-05T02:32:35.037Z,5.23
2019-04-05T02:35:04.422Z,6.17
2019-04-05T02:37:32.969Z,4.67
2019-04-05T02:40:01.476Z,4.67
2019-04-05T02:42:30.585Z,5.23
2019-04-05T02:44:59.700Z,10.10
2019-04-05T02:47:28.600Z,11.63
2019-04-05T02:49:58.512Z,10.47
2019-04-05T02:52:28.119Z,10.73
2019-04-05T02:54:57.122Z,10.23
2019-04-05T02:57:27.333Z,11.30
2019-04-05T02:59:56.313Z,12.00
2019-04-05T03:02:25.501Z,10.57
2019-04-05T03:04:54.140Z,10.03
2019-04-05T03:07:22.720Z,9.10
2019-04-05T03:09:51.955Z,9.33
2019-04-05T03:12:21.232Z,8.80
2019-04-05T03:14:51.231Z,9.37
2019-04-05T03:17:21.443Z,10.40
2019-04-05T03:19:52.882Z,7.93
2019-04-05T03:22:23.471Z,7.87
2019-04-05T03:24:52.370Z,8.53
2019-04-05T03:27:23.868Z,8.30
2019-04-05T03:29:53.179Z,8.87
2019-04-05T03:32:22.476Z,6.93
2019-04-05T03:34:51.014Z,7.10
2019-04-05T03:37:19.734Z,6.07
2019-04-05T03:39:48.854Z,8.47
2019-04-05T03:42:17.457Z,7.20
2019-04-05T03:44:47.174Z,8.03
2019-04-05T03:47:16.397Z,8.03
2019-04-05T03:49:46.657Z,6.93
2019-04-05T03:52:15.190Z,4.97
2019-04-05T03:54:43.907Z,8.43
2019-04-05T03:57:12.510Z,5.37
2019-04-05T03:59:41.196Z,7.17
2019-04-05T04:02:10.110Z,8.23
2019-04-05T04:04:38.712Z,4.23
2019-04-05T04:07:07.507Z,4.80
2019-04-05T04:09:36.138Z,3.63
2019-04-05T04:12:05.122Z,3.07
2019-04-05T04:14:33.643Z,3.67
2019-04-05T04:17:12.165Z,2.60
2019-04-05T04:19:33.488Z,2.73
2019-04-05T04:22:20.014Z,2.30
2019-04-05T04:24:48.824Z,4.47
2019-04-05T04:27:17.826Z,2.60
2019-04-05T04:29:46.446Z,2.57
2019-04-05T04:32:15.371Z,2.80
2019-04-05T04:34:44.005Z,2.53
2019-04-05T04:37:12.635Z,2.67
2019-04-05T04:39:41.709Z,3.00
2019-04-05T04:42:11.104Z,3.80
2019-04-05T04:44:40.127Z,3.00
2019-04-05T04:47:08.750Z,3.77
2019-04-05T04:49:37.461Z,3.60
2019-04-05T04:52:06.377Z,3.83
2019-04-05T04:54:35.071Z,6.30
2019-04-05T04:57:03.684Z,6.07
2019-04-05T04:59:32.269Z,2.97
2019-04-05T05:02:00.818Z,5.03
2019-04-05T05:04:30.010Z,3.73
2019-04-05T05:06:58.536Z,4.53
2019-04-05T05:09:27.468Z,5.83
2019-04-05T05:11:56.097Z,6.23
2019-04-05T05:14:24.926Z,7.03
2019-04-05T05:16:53.465Z,5.10
2019-04-05T05:19:22.039Z,3.27
2019-04-05T05:21:50.588Z,3.60
2019-04-05T05:24:19.162Z,4.53
2019-04-05T05:26:47.807Z,5.30
2019-04-05T05:29:16.347Z,3.03
2019-04-05T05:31:44.805Z,3.07
2019-04-05T05:34:13.522Z,4.20
2019-04-05T05:36:42.198Z,3.17
2019-04-05T05:39:10.928Z,3.17
2019-04-05T05:41:39.484Z,4.40
2019-04-05T05:44:08.119Z,4.10
2019-04-05T05:46:36.579Z,4.27
2019-04-05T05:49:05.398Z,2.33
2019-04-05T05:51:33.824Z,2.67
2019-04-05T05:54:02.250Z,5.03
2019-04-05T05:56:30.700Z,3.80
2019-04-05T05:58:59.597Z,5.17
2019-04-05T06:01:28.554Z,7.37
2019-04-05T06:03:57.029Z,3.70
2019-04-05T06:06:25.484Z,6.90
2019-04-05T06:08:53.934Z,3.77
2019-04-05T06:11:22.388Z,3.10
2019-04-05T06:13:50.856Z,3.00
2019-04-05T06:16:19.425Z,5.27
2019-04-05T06:18:48.667Z,4.73
2019-04-05T06:21:17.392Z,5.30
2019-04-05T06:23:46.219Z,4.23
2019-04-05T06:26:14.658Z,5.87
2019-04-05T06:28:43.177Z,6.13
2019-04-05T06:31:11.755Z,5.67
2019-04-05T06:33:40.354Z,5.37
2019-04-05T06:36:08.894Z,2.47
2019-04-05T06:38:37.415Z,4.73
2019-04-05T06:41:05.875Z,1.90
2019-04-05T06:43:34.330Z,2.63
2019-04-05T06:46:03.023Z,6.20
2019-04-05T06:48:31.743Z,3.10
2019-04-05T06:51:00.253Z,4.23
2019-04-05T06:53:28.682Z,4.13
2019-04-05T06:55:59.544Z,3.77
2019-04-05T06:58:29.010Z,4.33
2019-04-05T07:00:57.872Z,3.57
2019-04-05T07:03:26.647Z,2.93
2019-04-05T07:05:55.122Z,2.23
2019-04-05T07:08:23.710Z,2.90
2019-04-05T07:10:52.171Z,2.27
2019-04-05T07:13:20.689Z,2.43
2019-04-05T07:15:49.196Z,3.10
2019-04-05T07:18:17.750Z,4.83
2019-04-05T07:20:46.263Z,2.17
2019-04-05T07:23:14.760Z,3.57
2019-04-05T07:25:43.271Z,4.57
2019-04-05T07:28:11.761Z,3.57
2019-04-05T07:30:40.250Z,7.17
2019-04-05T07:33:08.753Z,10.43
2019-04-05T07:35:37.577Z,11.83
2019-04-05T07:38:06.126Z,2.17
2019-04-05T07:40:34.706Z,3.10
2019-04-05T07:43:03.238Z,2.33
2019-04-05T07:45:31.719Z,3.43
2019-04-05T07:48:00.205Z,5.93
2019-04-05T07:50:28.709Z,2.97
2019-04-05T07:52:57.197Z,9.23
2019-04-05T07:55:25.691Z,9.13
2019-04-05T07:57:54.285Z,2.20
2019-04-05T08:00:41.274Z,1.67
2019-04-05T08:03:09.808Z,1.77
2019-04-05T08:05:38.539Z,1.50
2019-04-05T08:08:10.096Z,1.77
2019-04-05T08:10:38.929Z,1.83
2019-04-05T08:13:07.923Z,2.13
2019-04-05T08:15:36.398Z,2.50
2019-04-05T08:18:05.056Z,1.33
2019-04-05T08:20:33.552Z,1.30
2019-04-05T08:23:02.040Z,1.50
2019-04-05T08:25:30.537Z,1.67
2019-04-05T08:27:59.059Z,1.30
2019-04-05T08:30:27.574Z,2.73
2019-04-05T08:32:56.060Z,1.50
2019-04-05T08:35:24.546Z,5.43
2019-04-05T08:37:53.087Z,2.20
2019-04-05T08:40:21.838Z,0.80
2019-04-05T08:42:50.297Z,1.30
2019-04-05T08:45:18.952Z,1.20
2019-04-05T08:47:47.436Z,0.70
2019-04-05T08:50:16.082Z,0.60
2019-04-05T08:52:44.577Z,0.60
2019-04-05T08:55:13.124Z,0.60
2019-04-05T08:57:41.644Z,0.60
2019-04-05T09:00:11.667Z,0.73
2019-04-05T09:02:40.242Z,1.47
2019-04-05T09:05:08.865Z,1.50
2019-04-05T09:07:37.349Z,0.83
2019-04-05T09:10:07.086Z,0.70
2019-04-05T09:12:35.576Z,0.60
2019-04-05T09:15:05.609Z,0.63
2019-04-05T09:17:34.114Z,1.30
2019-04-05T09:20:02.606Z,0.40
2019-04-05T09:22:31.102Z,0.50
2019-04-05T09:24:59.610Z,0.60
2019-04-05T09:27:28.311Z,0.50
2019-04-05T09:29:56.758Z,1.20
2019-04-05T09:32:25.249Z,0.50
2019-04-05T09:34:53.808Z,0.50
2019-04-05T09:37:22.569Z,0.60
2019-04-05T09:39:51.199Z,1.10
2019-04-05T09:42:19.699Z,2.43
2019-04-05T09:44:48.176Z,2.33
2019-04-05T09:47:16.777Z,3.47
2019-04-05T09:49:45.288Z,2.33
2019-04-05T09:52:13.789Z,2.60
2019-04-05T09:54:42.300Z,1.73
2019-04-05T09:57:10.820Z,1.60
2019-04-05T09:59:39.337Z,1.90
2019-04-05T10:02:08.023Z,3.23
2019-04-05T10:04:36.640Z,3.37
2019-04-05T10:07:05.264Z,1.77
2019-04-05T10:09:33.769Z,1.47
2019-04-05T10:12:02.275Z,1.63
2019-04-05T10:14:35.880Z,1.67
2019-04-05T10:17:04.424Z,2.90
2019-04-05T10:19:32.923Z,5.27
2019-04-05T10:22:01.423Z,4.70
2019-04-05T10:24:32.933Z,4.07
2019-04-05T10:27:00.144Z,5.87
2019-04-05T10:29:28.681Z,5.53
2019-04-05T10:31:57.163Z,3.50
2019-04-05T10:34:25.659Z,2.73
2019-04-05T10:36:54.141Z,3.00
2019-04-05T10:39:22.669Z,3.33
2019-04-05T10:42:02.647Z,6.07
2019-04-05T10:44:21.556Z,6.17
2019-04-05T10:46:50.191Z,4.33
2019-04-05T10:49:18.691Z,4.03
2019-04-05T10:51:47.574Z,3.77
2019-04-05T10:54:16.032Z,5.70
2019-04-05T10:56:44.895Z,4.23
2019-04-05T10:59:13.461Z,5.30
2019-04-05T11:01:41.922Z,3.70
2019-04-05T11:04:10.794Z,2.50
2019-04-05T11:06:39.282Z,3.53
2019-04-05T11:09:08.582Z,3.83
2019-04-05T11:11:37.092Z,4.53
2019-04-05T11:14:13.733Z,10.60
2019-04-05T11:16:35.870Z,3.17
2019-04-05T11:19:04.553Z,3.17
2019-04-05T11:21:33.069Z,2.90
2019-04-05T11:24:01.592Z,2.77
2019-04-05T11:26:30.096Z,2.60
2019-04-05T11:28:58.945Z,2.40
2019-04-05T11:31:27.717Z,2.30
2019-04-05T11:33:56.303Z,2.10
2019-04-05T11:36:25.840Z,2.37
2019-04-05T11:38:54.597Z,2.63
2019-04-05T11:41:26.337Z,2.07
2019-04-05T11:44:00.381Z,1.90
2019-04-05T11:46:29.563Z,2.70
2019-04-05T11:48:59.184Z,1.93
2019-04-05T11:51:27.752Z,2.20
2019-04-05T11:53:56.271Z,3.20
2019-04-05T11:56:24.778Z,3.73
2019-04-05T11:58:53.281Z,11.60
2019-04-05T12:01:23.789Z,3.33
2019-04-05T12:03:52.398Z,3.00
2019-04-05T12:06:20.877Z,3.43
2019-04-05T12:08:49.647Z,3.03
2019-04-05T12:11:18.127Z,3.63
2019-04-05T12:13:47.750Z,4.03
2019-04-05T12:16:16.711Z,3.67
2019-04-05T12:18:45.163Z,4.00
2019-04-05T12:21:13.733Z,4.23
2019-04-05T12:23:42.606Z,5.20
2019-04-05T12:26:11.038Z,5.33
2019-04-05T12:28:39.541Z,6.10
2019-04-05T12:31:08.033Z,5.10
2019-04-05T12:33:36.530Z,5.50
2019-04-05T12:36:05.214Z,4.90
2019-04-05T12:38:34.269Z,5.47
2019-04-05T12:41:03.688Z,4.37
2019-04-05T12:43:32.443Z,5.23
2019-04-05T12:46:01.097Z,4.90
2019-04-05T12:48:30.056Z,4.67
2019-04-05T12:51:01.366Z,6.50
2019-04-05T12:53:28.999Z,6.10
2019-04-05T12:55:57.495Z,7.40
2019-04-05T12:58:26.774Z,5.80
2019-04-05T13:00:56.181Z,4.50
2019-04-05T13:03:25.869Z,7.00
2019-04-05T13:05:56.951Z,5.00
2019-04-05T13:08:24.591Z,6.00
2019-04-05T13:10:55.585Z,5.77
2019-04-05T13:13:26.433Z,5.97
2019-04-05T13:15:53.908Z,6.10
2019-04-05T13:18:25.168Z,5.63
2019-04-05T13:20:53.058Z,7.20
2019-04-05T13:23:21.529Z,6.40
2019-04-05T13:25:50.023Z,7.27
2019-04-05T13:28:18.946Z,5.97
2019-04-05T13:30:48.575Z,8.03
2019-04-05T13:33:17.955Z,6.97
2019-04-05T13:35:46.453Z,6.53
2019-04-05T13:38:14.947Z,6.57
2019-04-05T13:40:43.426Z,6.97
2019-04-05T13:43:11.935Z,7.73
2019-04-05T13:45:40.413Z,7.40
2019-04-05T13:48:09.683Z,8.17
2019-04-05T13:50:41.368Z,5.87
2019-04-05T13:53:11.143Z,6.20
2019-04-05T13:55:40.732Z,7.07
2019-04-05T13:58:11.170Z,8.17
2019-04-05T14:00:39.488Z,6.30
2019-04-05T14:03:08.299Z,8.93
2019-04-05T14:05:36.768Z,7.73
2019-04-05T14:08:10.345Z,6.83
2019-04-05T14:10:35.571Z,9.20
2019-04-05T14:13:04.596Z,7.53
2019-04-05T14:15:33.187Z,7.50
2019-04-05T14:18:01.714Z,8.80
2019-04-05T14:20:30.195Z,7.87
2019-04-05T14:22:58.700Z,8.23
2019-04-05T14:25:29.968Z,7.80
2019-04-05T14:27:57.423Z,7.37
2019-04-05T14:30:25.940Z,7.17
2019-04-05T14:32:55.741Z,8.10
2019-04-05T14:35:25.256Z,8.43
2019-04-05T14:37:54.593Z,8.40
2019-04-05T14:40:28.377Z,8.87
2019-04-05T14:42:55.090Z,13.53
2019-04-05T14:45:23.689Z,10.87
2019-04-05T14:47:52.183Z,7.43
2019-04-05T14:50:20.783Z,6.80
2019-04-05T14:52:49.715Z,5.70
2019-04-05T14:55:18.892Z,6.40
2019-04-05T14:57:47.426Z,7.53
2019-04-05T15:00:16.797Z,7.67
2019-04-05T15:02:45.667Z,8.20
2019-04-05T15:05:14.815Z,7.80
2019-04-05T15:07:43.304Z,8.20
2019-04-05T15:10:11.874Z,10.80
2019-04-05T15:12:40.392Z,8.13
2019-04-05T15:15:09.553Z,9.07
2019-04-05T15:17:47.673Z,9.77
2019-04-05T15:20:09.069Z,11.23
2019-04-05T15:22:41.508Z,9.40
2019-04-05T15:25:08.610Z,10.27
2019-04-05T15:27:37.182Z,7.87
2019-04-05T15:30:07.118Z,8.30
2019-04-05T15:32:37.295Z,7.63
2019-04-05T15:35:09.370Z,6.63
2019-04-05T15:37:38.093Z,8.87
2019-04-05T15:40:08.068Z,7.67
2019-04-05T15:42:36.554Z,10.20
2019-04-05T15:45:10.029Z,10.03
2019-04-05T15:47:38.794Z,9.57
2019-04-05T15:50:08.923Z,9.27
2019-04-05T15:52:37.403Z,10.87
2019-04-05T15:55:07.442Z,11.83
2019-04-05T15:57:39.199Z,9.10
2019-04-05T16:00:09.620Z,12.00
2019-04-05T16:02:38.170Z,8.47
2019-04-05T16:05:09.165Z,8.47
2019-04-05T16:07:37.704Z,7.87
2019-04-05T16:10:08.831Z,9.47
2019-04-05T16:12:37.376Z,7.90
2019-04-05T16:15:08.029Z,7.67
2019-04-05T16:17:36.584Z,8.50
2019-04-05T16:20:08.489Z,7.63
2019-04-05T16:22:36.968Z,6.73
2019-04-05T16:25:07.226Z,6.40
2019-04-05T16:27:35.761Z,8.73
2019-04-05T16:30:06.257Z,7.53
2019-04-05T16:32:34.724Z,9.93
2019-04-05T16:35:03.242Z,8.93
2019-04-05T16:37:31.704Z,7.47
2019-04-05T16:40:00.253Z,7.90
2019-04-05T16:42:28.744Z,7.87
2019-04-05T16:44:57.437Z,7.23
2019-04-05T16:47:25.992Z,7.00
2019-04-05T16:49:54.486Z,7.47
2019-04-05T16:52:22.973Z,7.40
2019-04-05T16:54:51.445Z,7.07
2019-04-05T16:57:19.939Z,7.60
2019-04-05T16:59:48.437Z,9.50
2019-04-05T17:02:16.904Z,7.30
2019-04-05T17:04:45.399Z,7.13
2019-04-05T17:07:13.877Z,7.93
2019-04-05T17:09:42.383Z,8.03
2019-04-05T17:12:10.883Z,6.97
2019-04-05T17:14:39.450Z,7.57
2019-04-05T17:17:07.922Z,7.57
2019-04-05T17:19:36.393Z,7.23
2019-04-05T17:22:04.946Z,8.77
2019-04-05T17:24:33.418Z,8.00
2019-04-05T17:27:01.890Z,10.97
2019-04-05T17:29:30.560Z,11.30
2019-04-05T17:31:59.103Z,10.83
2019-04-05T17:34:27.601Z,11.10
2019-04-05T17:36:56.131Z,10.73
2019-04-05T17:39:24.630Z,10.23
2019-04-05T17:41:53.109Z,12.17
2019-04-05T17:44:21.606Z,11.50
2019-04-05T17:46:50.094Z,15.33
2019-04-05T17:49:18.568Z,13.70
2019-04-05T17:51:47.396Z,13.60
2019-04-05T17:54:15.919Z,12.43
2019-04-05T17:56:44.574Z,13.20
2019-04-05T17:59:13.742Z,10.80
2019-04-05T18:01:42.224Z,11.90
2019-04-05T18:04:11.050Z,11.60
2019-04-05T18:06:39.545Z,11.77
2019-04-05T18:09:08.368Z,12.13
2019-04-05T18:11:37.265Z,9.33
2019-04-05T18:14:05.775Z,9.43
2019-04-05T18:16:34.359Z,10.93
2019-04-05T18:19:02.845Z,9.60
2019-04-05T18:21:31.339Z,8.90
2019-04-05T18:23:59.872Z,10.93
2019-04-05T18:26:28.331Z,9.27
2019-04-05T18:28:56.820Z,9.63
2019-04-05T18:31:25.340Z,10.70
2019-04-05T18:33:53.862Z,13.53
2019-04-05T18:36:22.364Z,9.10
2019-04-05T18:38:50.907Z,6.30
2019-04-05T18:41:19.402Z,7.60
2019-04-05T18:43:47.898Z,8.30
2019-04-05T18:46:16.439Z,6.40
2019-04-05T18:48:44.937Z,5.57
2019-04-05T18:51:13.505Z,5.77
2019-04-05T18:53:46.966Z,6.17
2019-04-05T18:56:16.330Z,5.67
2019-04-05T18:58:44.830Z,5.07
2019-04-05T19:01:13.336Z,5.20
2019-04-05T19:03:41.914Z,6.30
2019-04-05T19:06:10.475Z,6.63
2019-04-05T19:08:40.154Z,5.93
2019-04-05T19:11:08.876Z,4.97
2019-04-05T19:13:37.385Z,5.87
2019-04-05T19:16:06.054Z,4.83
2019-04-05T19:18:35.036Z,6.13
2019-04-05T19:21:03.806Z,7.10
2019-04-05T19:23:32.293Z,5.43
2019-04-05T19:26:00.807Z,8.27
2019-04-05T19:28:29.307Z,6.03
2019-04-05T19:50:57.867Z,6.03
2019-04-05T19:53:26.371Z,9.07
2019-04-05T19:55:54.871Z,7.20
2019-04-05T19:58:23.363Z,7.10
2019-04-05T20:00:51.868Z,7.27
2019-04-05T20:03:20.339Z,6.23
2019-04-05T20:05:48.879Z,6.90
2019-04-05T20:08:17.364Z,9.60
2019-04-05T20:10:46.020Z,9.13
2019-04-05T20:13:14.501Z,8.57
2019-04-05T20:15:43.141Z,8.87
2019-04-05T20:18:11.646Z,8.23
2019-04-05T20:20:40.143Z,8.37
2019-04-05T20:23:08.665Z,8.00
2019-04-05T20:25:37.172Z,7.73
2019-04-05T20:28:05.638Z,8.90
2019-04-05T20:30:34.152Z,9.57
2019-04-05T20:33:02.652Z,7.70
2019-04-05T20:35:31.208Z,8.20
2019-04-05T20:37:59.684Z,6.83
2019-04-05T20:40:28.276Z,8.13
2019-04-05T20:42:56.718Z,7.83
2019-04-05T20:45:25.229Z,6.33
2019-04-05T20:47:53.791Z,8.53
2019-04-05T20:50:22.343Z,9.63
2019-04-05T20:52:50.854Z,9.60
2019-04-05T20:55:19.340Z,8.07
2019-04-05T20:57:47.850Z,7.33
2019-04-05T21:00:16.943Z,8.20
2019-04-05T21:02:45.442Z,7.80
2019-04-05T21:05:20.632Z,7.30
2019-04-05T21:07:44.172Z,10.00
2019-04-05T21:10:12.790Z,8.53
2019-04-05T21:12:41.279Z,9.03
2019-04-05T21:15:09.860Z,5.83
2019-04-05T21:17:38.407Z,4.53
2019-04-05T21:20:07.544Z,6.13
2019-04-05T21:22:36.139Z,5.67
2019-04-05T21:25:06.266Z,6.10
2019-04-05T21:27:34.747Z,6.80
2019-04-05T21:30:03.435Z,6.57
2019-04-05T21:32:31.986Z,7.33
2019-04-05T21:35:00.454Z,6.83
2019-04-05T21:37:28.940Z,6.00
2019-04-05T21:39:57.520Z,5.00
2019-04-05T21:42:26.018Z,8.20
2019-04-05T21:44:54.575Z,8.23
2019-04-05T21:47:23.074Z,8.47
2019-04-05T21:49:51.577Z,6.10
2019-04-05T21:52:20.104Z,4.73
2019-04-05T21:54:48.625Z,5.73
2019-04-05T21:57:17.151Z,6.63
2019-04-05T21:59:45.666Z,4.87
2019-04-05T22:02:14.236Z,6.23
2019-04-05T22:04:42.750Z,6.43
2019-04-05T22:07:11.434Z,8.03
2019-04-05T22:09:39.916Z,7.40
2019-04-05T22:12:08.409Z,7.60
2019-04-05T22:14:36.926Z,9.07
2019-04-05T22:17:05.507Z,5.23
2019-04-05T22:19:34.007Z,5.30
2019-04-05T22:22:02.490Z,6.20
2019-04-05T22:24:31.018Z,8.13
2019-04-05T22:26:59.482Z,8.10
2019-04-05T22:29:27.981Z,7.53
2019-04-05T22:31:56.492Z,7.53
2019-04-05T22:34:25.041Z,8.00
2019-04-05T22:36:53.527Z,6.30
2019-04-05T22:39:22.041Z,6.70
2019-04-05T22:41:50.482Z,7.63
2019-04-05T22:44:18.972Z,6.23
2019-04-05T22:46:47.457Z,6.87
2019-04-05T22:49:15.958Z,7.47
2019-04-05T22:51:44.439Z,6.43
2019-04-05T22:54:28.145Z,9.60
2019-04-05T22:56:56.718Z,8.60
2019-04-05T22:59:25.237Z,7.23
2019-04-05T23:01:53.741Z,6.87
2019-04-05T23:04:22.258Z,7.70
2019-04-05T23:06:50.780Z,7.27
2019-04-05T23:09:19.275Z,9.07
2019-04-05T23:11:47.757Z,9.10
2019-04-05T23:14:47.511Z,9.33
2019-04-05T23:17:16.041Z,6.90
2019-04-05T23:19:44.498Z,7.43
2019-04-05T23:22:12.999Z,6.23
2019-04-05T23:24:41.536Z,5.60
2019-04-05T23:27:10.073Z,6.87
2019-04-05T23:29:38.584Z,7.10
2019-04-05T23:32:07.094Z,5.87
2019-04-05T23:34:35.658Z,5.20
2019-04-05T23:37:04.132Z,5.47
2019-04-05T23:39:32.659Z,6.03
2019-04-05T23:42:01.324Z,9.80
2019-04-05T23:44:29.841Z,5.37
2019-04-05T23:46:58.355Z,4.70
2019-04-05T23:49:26.832Z,5.00
2019-04-05T23:51:55.308Z,5.20
2019-04-05T23:54:23.819Z,5.67
2019-04-05T23:56:52.391Z,4.07
2019-04-05T23:59:20.841Z,4.70
